Time;durP1;ratioP1;P1;durP2;ratioP2;P2;SDS_P1;SDS_P2;PMS_P1;PMS_P2;Temp;Humidity;BMP_temperature;BMP_pressure;BME280_temperature;BME280_humidity;BME280_pressure;Samples;Min_cycle;Max_cycle;Signal;HPM_P1;HPM_P2
2023/12/24 00:01:11;;;;;;;11.85;3.75;;;;;;;;;;4915008;29;20250;-40
2023/12/24 00:03:39;;;;;;;11.57;3.40;;;;;;;;;;4915143;29;20539;-40
2023/12/24 00:06:06;;;;;;;13.32;3.47;;;;;;;;;;4914762;29;20180;-40
2023/12/24 00:08:33;;;;;;;10.40;3.40;;;;;;;;;;4915112;29;20395;-40
2023/12/24 00:11:00;;;;;;;10.13;3.63;;;;;;;;;;4914769;29;20059;-40
2023/12/24 00:13:27;;;;;;;15.63;3.70;;;;;;;;;;4913806;29;20147;-40
2023/12/24 00:15:54;;;;;;;10.63;3.28;;;;;;;;;;4914527;29;20062;-40
2023/12/24 00:18:21;;;;;;;14.50;3.35;;;;;;;;;;4915027;29;20059;-40
2023/12/24 00:20:48;;;;;;;16.23;4.35;;;;;;;;;;4914983;29;20207;-40
2023/12/24 00:23:15;;;;;;;13.40;3.80;;;;;;;;;;4915025;29;20028;-40
2023/12/24 00:25:42;;;;;;;15.45;3.45;;;;;;;;;;4914576;29;20029;-40
2023/12/24 00:28:09;;;;;;;16.45;4.30;;;;;;;;;;4915002;29;20028;-40
2023/12/24 00:30:36;;;;;;;10.52;3.60;;;;;;;;;;4915027;29;20035;-41
2023/12/24 00:33:03;;;;;;;16.55;3.95;;;;;;;;;;4914995;29;20044;-40
2023/12/24 00:35:32;;;;;;;13.90;4.07;;;;;;;;;;4918074;29;20024;-41
2023/12/24 00:37:59;;;;;;;12.45;3.60;;;;;;;;;;4918438;29;20032;-40
2023/12/24 00:40:26;;;;;;;9.90;3.60;;;;;;;;;;4918330;29;20395;-40
2023/12/24 00:42:53;;;;;;;11.20;3.20;;;;;;;;;;4917625;29;20080;-41
2023/12/24 00:45:23;;;;;;;13.10;3.75;;;;;;;;;;4916905;29;20514;-41
2023/12/24 00:47:51;;;;;;;18.17;3.53;;;;;;;;;;4917567;29;20025;-40
2023/12/24 00:50:18;;;;;;;16.95;3.85;;;;;;;;;;4917386;29;20086;-40
2023/12/24 00:52:46;;;;;;;15.05;3.53;;;;;;;;;;4917466;29;20044;-40
2023/12/24 00:55:13;;;;;;;14.02;4.15;;;;;;;;;;4916809;29;20059;-41
2023/12/24 00:57:40;;;;;;;12.68;3.58;;;;;;;;;;4913694;29;20036;-40
2023/12/24 01:00:07;;;;;;;20.88;3.92;;;;;;;;;;4917221;29;20043;-40
2023/12/24 01:02:34;;;;;;;17.77;4.72;;;;;;;;;;4917090;29;20044;-42
2023/12/24 01:05:01;;;;;;;20.73;4.65;;;;;;;;;;4917146;29;20028;-40
2023/12/24 01:07:28;;;;;;;25.33;5.10;;;;;;;;;;4917045;29;20557;-40
2023/12/24 01:09:55;;;;;;;27.33;5.43;;;;;;;;;;4914360;29;20020;-41
2023/12/24 01:12:22;;;;;;;30.20;5.07;;;;;;;;;;4911873;29;20059;-40
2023/12/24 01:14:49;;;;;;;45.83;6.70;;;;;;;;;;4914976;29;20363;-40
2023/12/24 01:17:16;;;;;;;42.33;7.20;;;;;;;;;;4915456;29;20073;-40
2023/12/24 01:19:44;;;;;;;36.83;7.50;;;;;;;;;;4914517;29;20490;-40
2023/12/24 01:22:11;;;;;;;34.50;7.50;;;;;;;;;;4916254;29;20028;-41
2023/12/24 01:24:38;;;;;;;43.38;8.25;;;;;;;;;;4912917;29;20391;-41
2023/12/24 01:27:06;;;;;;;34.17;7.05;;;;;;;;;;4906254;29;20032;-41
2023/12/24 01:29:33;;;;;;;37.63;7.55;;;;;;;;;;4902598;29;20487;-41
2023/12/24 01:31:59;;;;;;;32.95;6.65;;;;;;;;;;4920651;29;20525;-41
2023/12/24 01:34:26;;;;;;;39.85;6.57;;;;;;;;;;4913440;29;20032;-40
2023/12/24 01:36:53;;;;;;;39.88;6.72;;;;;;;;;;4902322;29;20141;-41
2023/12/24 01:39:20;;;;;;;37.50;6.93;;;;;;;;;;4898492;29;20032;-40
2023/12/24 01:41:48;;;;;;;45.17;7.03;;;;;;;;;;4909818;29;20028;-40
2023/12/24 01:44:15;;;;;;;31.77;7.28;;;;;;;;;;4909776;29;20032;-41
2023/12/24 01:46:42;;;;;;;34.08;6.50;;;;;;;;;;4907190;29;20076;-40
2023/12/24 01:49:09;;;;;;;31.50;6.25;;;;;;;;;;4897816;29;20384;-40
2023/12/24 01:51:36;;;;;;;32.67;7.47;;;;;;;;;;4901886;29;20047;-40
2023/12/24 01:54:06;;;;;;;31.35;6.28;;;;;;;;;;4910390;29;20432;-40
2023/12/24 01:56:33;;;;;;;22.75;6.43;;;;;;;;;;4905630;29;20487;-40
2023/12/24 01:59:00;;;;;;;34.90;6.55;;;;;;;;;;4901789;29;20040;-40
2023/12/24 02:01:28;;;;;;;25.67;6.65;;;;;;;;;;4898418;29;20036;-40
2023/12/24 02:03:56;;;;;;;24.10;6.40;;;;;;;;;;4899191;29;20048;-40
2023/12/24 02:06:25;;;;;;;29.88;6.50;;;;;;;;;;4902223;29;20036;-40
2023/12/24 02:08:52;;;;;;;24.15;6.65;;;;;;;;;;4906537;29;20036;-40
2023/12/24 02:11:21;;;;;;;22.40;6.68;;;;;;;;;;4902521;29;20111;-40
2023/12/24 02:13:48;;;;;;;22.30;6.45;;;;;;;;;;4906243;29;20036;-40
2023/12/24 02:16:18;;;;;;;24.42;6.43;;;;;;;;;;4913526;29;20111;-40
2023/12/24 02:18:45;;;;;;;22.85;6.43;;;;;;;;;;4903424;29;20020;-40
2023/12/24 02:21:12;;;;;;;28.17;6.05;;;;;;;;;;4909527;29;20035;-38
2023/12/24 02:23:40;;;;;;;20.00;5.50;;;;;;;;;;4910816;29;20049;-42
2023/12/24 02:26:25;;;;;;;20.80;5.60;;;;;;;;;;4902721;29;20047;-41
2023/12/24 02:28:57;;;;;;;26.67;5.93;;;;;;;;;;4915012;29;20032;-43
2023/12/24 02:31:27;;;;;;;25.75;5.68;;;;;;;;;;4914542;29;20043;-39
2023/12/24 02:33:55;;;;;;;19.90;5.65;;;;;;;;;;4915352;29;20024;-40
2023/12/24 02:36:22;;;;;;;26.33;6.00;;;;;;;;;;4915653;29;20036;-43
2023/12/24 02:38:50;;;;;;;23.35;5.47;;;;;;;;;;4914798;29;20395;-42
2023/12/24 02:41:18;;;;;;;19.75;5.60;;;;;;;;;;4915784;29;20084;-41
2023/12/24 02:43:45;;;;;;;18.00;4.60;;;;;;;;;;4898733;29;20371;-40
2023/12/24 02:46:19;;;;;;;22.67;5.30;;;;;;;;;;4914975;29;20067;-40
2023/12/24 02:48:46;;;;;;;18.67;4.78;;;;;;;;;;4911604;29;20044;-43
2023/12/24 02:51:13;;;;;;;18.15;5.07;;;;;;;;;;4913834;29;20040;-38
2023/12/24 02:53:40;;;;;;;24.45;4.80;;;;;;;;;;4909298;29;20028;-39
2023/12/24 02:56:07;;;;;;;19.95;4.75;;;;;;;;;;4905926;29;20049;-39
2023/12/24 02:58:34;;;;;;;18.05;5.10;;;;;;;;;;4914500;29;20047;-39
2023/12/24 03:01:02;;;;;;;17.90;4.88;;;;;;;;;;4908229;29;20043;-38
2023/12/24 03:03:29;;;;;;;15.10;4.47;;;;;;;;;;4909936;29;20051;-38
2023/12/24 03:05:56;;;;;;;18.55;4.93;;;;;;;;;;4910841;29;20047;-38
2023/12/24 03:08:24;;;;;;;17.60;4.15;;;;;;;;;;4897641;29;20434;-39
2023/12/24 03:10:51;;;;;;;22.30;4.50;;;;;;;;;;4914670;29;20662;-39
2023/12/24 03:13:18;;;;;;;11.32;3.72;;;;;;;;;;4906942;29;20098;-40
2023/12/24 03:15:45;;;;;;;20.08;4.90;;;;;;;;;;4905735;29;20557;-40
2023/12/24 03:18:13;;;;;;;12.80;4.10;;;;;;;;;;4905689;29;20701;-40
2023/12/24 03:20:40;;;;;;;15.18;4.38;;;;;;;;;;4902702;29;20028;-43
2023/12/24 03:23:08;;;;;;;16.48;4.57;;;;;;;;;;4911539;29;20044;-41
2023/12/24 03:25:35;;;;;;;15.18;4.40;;;;;;;;;;4907526;29;20068;-41
2023/12/24 03:28:02;;;;;;;15.63;4.75;;;;;;;;;;4907996;29;20032;-41
2023/12/24 03:30:30;;;;;;;13.88;3.63;;;;;;;;;;4906828;29;20032;-39
2023/12/24 03:32:58;;;;;;;17.90;4.32;;;;;;;;;;4913649;29;20039;-42
2023/12/24 03:35:25;;;;;;;13.52;4.30;;;;;;;;;;4903929;29;20036;-44
2023/12/24 03:37:52;;;;;;;19.27;4.25;;;;;;;;;;4913767;29;20036;-42
2023/12/24 03:40:19;;;;;;;17.55;4.13;;;;;;;;;;4902895;29;20044;-40
2023/12/24 03:42:46;;;;;;;16.35;4.57;;;;;;;;;;4914672;29;20451;-41
2023/12/24 03:45:14;;;;;;;12.60;3.63;;;;;;;;;;4914751;29;20050;-41
2023/12/24 03:47:41;;;;;;;15.98;3.88;;;;;;;;;;4911269;29;20040;-44
2023/12/24 03:50:09;;;;;;;14.48;3.40;;;;;;;;;;4907832;29;20608;-41
2023/12/24 03:52:37;;;;;;;13.25;3.95;;;;;;;;;;4908952;29;20075;-41
2023/12/24 03:55:05;;;;;;;13.10;3.70;;;;;;;;;;4908551;29;20431;-42
2023/12/24 03:57:32;;;;;;;10.35;3.20;;;;;;;;;;4909355;29;20044;-40
2023/12/24 04:00:00;;;;;;;19.10;4.13;;;;;;;;;;4907947;29;20415;-41
2023/12/24 04:02:27;;;;;;;8.98;3.20;;;;;;;;;;4906826;29;20040;-40
2023/12/24 04:04:54;;;;;;;11.15;3.28;;;;;;;;;;4914423;29;20107;-40
2023/12/24 04:07:22;;;;;;;12.07;3.20;;;;;;;;;;4914564;29;20513;-40
2023/12/24 04:09:49;;;;;;;9.63;3.42;;;;;;;;;;4917321;29;20395;-38
2023/12/24 04:12:16;;;;;;;10.85;3.03;;;;;;;;;;4911605;29;20112;-39
2023/12/24 04:14:50;;;;;;;10.35;3.00;;;;;;;;;;4906529;29;20028;-39
2023/12/24 04:17:17;;;;;;;9.18;3.10;;;;;;;;;;4898665;29;20590;-40
2023/12/24 04:19:44;;;;;;;9.00;3.00;;;;;;;;;;4924341;29;20055;-41
2023/12/24 04:22:11;;;;;;;9.68;3.20;;;;;;;;;;4931247;29;20032;-39
2023/12/24 04:24:39;;;;;;;12.32;3.33;;;;;;;;;;4918436;29;20099;-41
2023/12/24 04:27:06;;;;;;;13.23;3.50;;;;;;;;;;4917553;29;20060;-39
2023/12/24 04:29:33;;;;;;;11.48;3.30;;;;;;;;;;4916492;29;20788;-40
2023/12/24 04:32:00;;;;;;;17.98;3.65;;;;;;;;;;4918135;29;20490;-39
2023/12/24 04:34:27;;;;;;;20.35;3.58;;;;;;;;;;4918188;29;20059;-39
2023/12/24 04:36:54;;;;;;;16.95;3.40;;;;;;;;;;4917830;29;20036;-40
2023/12/24 04:39:21;;;;;;;13.80;2.80;;;;;;;;;;4917761;29;20403;-40
2023/12/24 04:41:48;;;;;;;20.75;3.70;;;;;;;;;;4917302;29;20084;-39
2023/12/24 04:44:15;;;;;;;12.88;3.03;;;;;;;;;;4918016;29;20036;-39
2023/12/24 04:46:43;;;;;;;14.23;2.70;;;;;;;;;;4918022;29;20446;-39
2023/12/24 04:49:10;;;;;;;15.77;3.40;;;;;;;;;;4916239;29;20043;-38
2023/12/24 04:51:37;;;;;;;11.18;2.72;;;;;;;;;;4900993;29;20036;-39
2023/12/24 04:54:04;;;;;;;16.45;3.10;;;;;;;;;;4918138;29;20364;-38
2023/12/24 04:56:32;;;;;;;8.27;2.70;;;;;;;;;;4917568;29;20122;-39
2023/12/24 04:58:59;;;;;;;12.13;2.90;;;;;;;;;;4917772;29;20417;-37
2023/12/24 05:01:26;;;;;;;11.35;2.70;;;;;;;;;;4917984;29;20032;-39
2023/12/24 05:03:53;;;;;;;12.85;2.88;;;;;;;;;;4917685;29;20486;-39
2023/12/24 05:06:21;;;;;;;11.52;2.88;;;;;;;;;;4917839;29;20046;-40
2023/12/24 05:08:48;;;;;;;10.70;2.50;;;;;;;;;;4917586;29;20598;-37
2023/12/24 05:11:15;;;;;;;13.73;2.65;;;;;;;;;;4917028;29;20044;-38
2023/12/24 05:13:42;;;;;;;11.27;3.10;;;;;;;;;;4917659;29;20032;-39
2023/12/24 05:16:09;;;;;;;8.52;2.30;;;;;;;;;;4917499;29;20067;-38
2023/12/24 05:18:36;;;;;;;12.77;2.63;;;;;;;;;;4917458;29;20092;-38
2023/12/24 05:21:02;;;;;;;12.55;2.67;;;;;;;;;;4917018;29;20032;-38
2023/12/24 05:23:29;;;;;;;9.10;2.75;;;;;;;;;;4917384;29;20120;-38
2023/12/24 05:25:57;;;;;;;8.10;2.33;;;;;;;;;;4917313;29;20043;-38
2023/12/24 05:28:24;;;;;;;5.88;2.35;;;;;;;;;;4917248;29;20495;-40
2023/12/24 05:30:51;;;;;;;8.52;2.80;;;;;;;;;;4916986;29;20558;-37
2023/12/24 05:33:18;;;;;;;10.73;2.60;;;;;;;;;;4916051;29;20028;-37
2023/12/24 05:35:45;;;;;;;10.77;2.15;;;;;;;;;;4916978;29;20036;-40
2023/12/24 05:38:12;;;;;;;9.00;2.70;;;;;;;;;;4917224;29;20111;-38
2023/12/24 05:40:42;;;;;;;10.82;2.20;;;;;;;;;;4916866;29;20435;-38
2023/12/24 05:43:12;;;;;;;10.15;2.75;;;;;;;;;;4916868;29;20076;-37
2023/12/24 05:45:38;;;;;;;10.98;2.85;;;;;;;;;;4917039;29;20055;-38
2023/12/24 05:48:06;;;;;;;8.68;2.22;;;;;;;;;;4916442;29;20035;-40
2023/12/24 05:50:32;;;;;;;8.90;2.20;;;;;;;;;;4916608;29;20032;-39
2023/12/24 05:52:59;;;;;;;12.48;2.72;;;;;;;;;;4916983;29;20566;-40
2023/12/24 05:55:27;;;;;;;7.90;2.47;;;;;;;;;;4899698;29;20100;-40
2023/12/24 05:57:54;;;;;;;8.27;2.70;;;;;;;;;;4916823;29;20028;-40
2023/12/24 06:00:21;;;;;;;11.60;2.22;;;;;;;;;;4916447;29;20032;-40
2023/12/24 06:02:49;;;;;;;9.50;2.55;;;;;;;;;;4915539;29;20070;-39
2023/12/24 06:05:16;;;;;;;4.53;1.88;;;;;;;;;;4916502;29;20047;-39
2023/12/24 06:07:43;;;;;;;7.80;2.28;;;;;;;;;;4916622;29;20039;-37
2023/12/24 06:10:10;;;;;;;7.30;2.03;;;;;;;;;;4916409;29;20475;-40
2023/12/24 06:12:37;;;;;;;6.15;2.08;;;;;;;;;;4916444;29;20028;-36
2023/12/24 06:15:05;;;;;;;8.52;2.00;;;;;;;;;;4916413;29;20036;-38
2023/12/24 06:17:32;;;;;;;7.47;2.05;;;;;;;;;;4916293;29;20130;-38
2023/12/24 06:19:59;;;;;;;7.97;2.10;;;;;;;;;;4915157;29;20032;-39
2023/12/24 06:22:26;;;;;;;9.88;2.53;;;;;;;;;;4915241;29;20040;-39
2023/12/24 06:24:52;;;;;;;7.28;2.13;;;;;;;;;;4916092;29;20177;-38
2023/12/24 06:27:19;;;;;;;6.40;2.10;;;;;;;;;;4916211;29;20080;-39
2023/12/24 06:29:46;;;;;;;6.60;2.20;;;;;;;;;;4915930;29;20047;-38
2023/12/24 06:32:13;;;;;;;7.50;2.00;;;;;;;;;;4915346;29;20036;-38
2023/12/24 06:34:40;;;;;;;6.28;1.88;;;;;;;;;;4916133;29;20096;-38
2023/12/24 06:37:08;;;;;;;7.70;2.17;;;;;;;;;;4916075;29;20111;-38
2023/12/24 06:39:35;;;;;;;7.55;1.92;;;;;;;;;;4915981;29;20402;-39
2023/12/24 06:42:02;;;;;;;7.10;1.90;;;;;;;;;;4915774;29;20072;-41
2023/12/24 06:44:29;;;;;;;5.88;2.00;;;;;;;;;;4915997;29;20059;-39
2023/12/24 06:46:56;;;;;;;9.82;2.38;;;;;;;;;;4915863;29;20044;-40
2023/12/24 06:49:23;;;;;;;5.75;1.88;;;;;;;;;;4915705;29;20067;-40
2023/12/24 06:51:49;;;;;;;7.88;1.80;;;;;;;;;;4915010;29;20028;-42
2023/12/24 06:54:16;;;;;;;6.57;1.92;;;;;;;;;;4915865;29;20028;-42
2023/12/24 06:56:44;;;;;;;5.68;1.75;;;;;;;;;;4915636;29;20040;-42
2023/12/24 06:59:11;;;;;;;6.70;2.38;;;;;;;;;;4915641;29;20115;-42
2023/12/24 07:01:38;;;;;;;5.47;1.95;;;;;;;;;;4915501;29;20032;-42
2023/12/24 07:04:05;;;;;;;4.78;2.38;;;;;;;;;;4915682;29;20039;-42
2023/12/24 07:06:32;;;;;;;11.73;2.25;;;;;;;;;;4914419;29;20108;-42
2023/12/24 07:08:59;;;;;;;9.90;2.50;;;;;;;;;;4915649;29;20367;-42
2023/12/24 07:11:26;;;;;;;10.07;2.28;;;;;;;;;;4914866;29;20135;-42
2023/12/24 07:13:53;;;;;;;8.73;2.35;;;;;;;;;;4915513;29;20078;-42
2023/12/24 07:16:20;;;;;;;12.18;2.60;;;;;;;;;;4915547;29;20024;-42
2023/12/24 07:18:47;;;;;;;7.40;2.30;;;;;;;;;;4915576;29;20020;-42
2023/12/24 07:21:14;;;;;;;8.20;2.05;;;;;;;;;;4915474;29;20032;-42
2023/12/24 07:23:42;;;;;;;11.77;2.13;;;;;;;;;;4914978;29;20103;-42
2023/12/24 07:26:09;;;;;;;6.70;1.92;;;;;;;;;;4915304;29;20040;-42
2023/12/24 07:28:36;;;;;;;9.63;2.10;;;;;;;;;;4915502;29;20032;-42
2023/12/24 07:31:02;;;;;;;9.65;2.10;;;;;;;;;;4915437;29;20060;-42
2023/12/24 07:33:30;;;;;;;5.20;1.80;;;;;;;;;;4914913;29;20047;-42
2023/12/24 07:35:57;;;;;;;10.95;1.90;;;;;;;;;;4915329;29;20032;-42
2023/12/24 07:38:29;;;;;;;8.30;2.53;;;;;;;;;;4915370;29;20051;-42
2023/12/24 07:40:56;;;;;;;4.35;1.83;;;;;;;;;;4915479;29;20044;-42
2023/12/24 07:43:23;;;;;;;7.10;1.80;;;;;;;;;;4915537;29;20032;-42
2023/12/24 07:45:52;;;;;;;8.30;1.58;;;;;;;;;;4919438;29;20384;-42
2023/12/24 07:48:19;;;;;;;9.80;2.28;;;;;;;;;;4919091;29;20040;-42
2023/12/24 07:50:46;;;;;;;6.53;2.00;;;;;;;;;;4919168;29;20024;-42
2023/12/24 07:53:13;;;;;;;4.43;1.80;;;;;;;;;;4918165;29;20066;-42
2023/12/24 07:55:41;;;;;;;7.28;1.70;;;;;;;;;;4918998;29;20483;-42
2023/12/24 07:58:08;;;;;;;7.10;2.25;;;;;;;;;;4918990;29;20028;-42
2023/12/24 08:00:35;;;;;;;4.10;1.67;;;;;;;;;;4918968;29;20028;-42
2023/12/24 08:03:02;;;;;;;5.95;2.10;;;;;;;;;;4918455;29;20051;-42
2023/12/24 08:05:29;;;;;;;4.40;1.90;;;;;;;;;;4918761;29;20123;-42
2023/12/24 08:07:56;;;;;;;4.95;1.70;;;;;;;;;;4918920;29;20491;-42
2023/12/24 08:10:23;;;;;;;5.13;1.60;;;;;;;;;;4918740;29;20192;-42
2023/12/24 08:12:50;;;;;;;5.28;1.70;;;;;;;;;;4918320;29;20034;-42
2023/12/24 08:15:21;;;;;;;3.47;1.58;;;;;;;;;;4918485;29;20068;-42
2023/12/24 08:17:48;;;;;;;5.68;1.45;;;;;;;;;;4918612;29;20036;-42
2023/12/24 08:20:15;;;;;;;4.45;1.70;;;;;;;;;;4918596;29;20052;-42
2023/12/24 08:22:44;;;;;;;5.43;1.50;;;;;;;;;;4918011;29;20510;-42
2023/12/24 08:25:11;;;;;;;6.80;1.50;;;;;;;;;;4918296;29;20051;-42
2023/12/24 08:27:37;;;;;;;6.00;1.73;;;;;;;;;;4918526;29;20032;-42
2023/12/24 08:30:05;;;;;;;5.30;1.45;;;;;;;;;;4918423;29;20076;-42
2023/12/24 08:32:32;;;;;;;3.38;1.70;;;;;;;;;;4918207;29;20067;-44
2023/12/24 08:34:59;;;;;;;6.22;1.80;;;;;;;;;;4918225;29;20789;-42
2023/12/24 08:37:26;;;;;;;4.00;1.63;;;;;;;;;;4900421;29;20040;-42
2023/12/24 08:39:53;;;;;;;5.95;1.75;;;;;;;;;;4918261;29;20115;-42
2023/12/24 08:42:20;;;;;;;4.60;1.60;;;;;;;;;;4918180;29;20039;-42
2023/12/24 08:44:47;;;;;;;4.47;1.70;;;;;;;;;;4934839;29;20035;-42
2023/12/24 08:47:14;;;;;;;6.18;2.15;;;;;;;;;;4937111;29;20024;-42
2023/12/24 08:49:41;;;;;;;4.72;2.00;;;;;;;;;;4937186;29;20024;-42
2023/12/24 08:52:09;;;;;;;4.75;1.70;;;;;;;;;;4937169;29;20063;-42
2023/12/24 08:54:36;;;;;;;8.05;1.60;;;;;;;;;;4936029;29;20082;-42
2023/12/24 08:57:03;;;;;;;3.60;1.60;;;;;;;;;;4937044;29;20486;-42
2023/12/24 08:59:30;;;;;;;4.63;1.60;;;;;;;;;;4936968;29;20475;-42
2023/12/24 09:01:57;;;;;;;2.22;1.40;;;;;;;;;;4936941;29;20032;-42
2023/12/24 09:04:24;;;;;;;5.20;1.52;;;;;;;;;;4936355;29;20111;-43
2023/12/24 09:06:51;;;;;;;2.90;1.27;;;;;;;;;;4936912;29;20032;-42
2023/12/24 09:09:17;;;;;;;4.80;1.40;;;;;;;;;;4936756;29;20043;-42
2023/12/24 09:11:44;;;;;;;9.20;1.80;;;;;;;;;;4936582;29;20055;-42
2023/12/24 09:14:11;;;;;;;5.13;1.63;;;;;;;;;;4936338;29;20092;-42
2023/12/24 09:16:38;;;;;;;4.55;1.33;;;;;;;;;;4936483;29;20122;-42
2023/12/24 09:19:05;;;;;;;3.25;1.42;;;;;;;;;;4936596;29;20032;-42
2023/12/24 09:21:32;;;;;;;4.35;1.55;;;;;;;;;;4936596;29;20056;-42
2023/12/24 09:24:01;;;;;;;4.05;1.23;;;;;;;;;;4923800;29;20166;-42
2023/12/24 09:26:28;;;;;;;2.85;1.27;;;;;;;;;;4917312;29;20044;-42
2023/12/24 09:28:55;;;;;;;5.10;1.20;;;;;;;;;;4917445;29;20410;-42
2023/12/24 09:31:22;;;;;;;2.10;1.23;;;;;;;;;;4917475;29;20028;-42
2023/12/24 09:33:49;;;;;;;3.60;1.55;;;;;;;;;;4916862;29;20047;-42
2023/12/24 09:36:16;;;;;;;5.05;1.60;;;;;;;;;;4917266;29;20589;-42
2023/12/24 09:38:43;;;;;;;8.73;1.60;;;;;;;;;;4917369;29;20066;-42
2023/12/24 09:41:10;;;;;;;3.83;1.50;;;;;;;;;;4917284;29;20054;-42
2023/12/24 09:43:39;;;;;;;4.00;1.27;;;;;;;;;;4917118;29;20032;-42
2023/12/24 09:46:06;;;;;;;5.10;1.45;;;;;;;;;;4916506;29;20036;-42
2023/12/24 09:48:34;;;;;;;3.95;1.40;;;;;;;;;;4917165;29;20040;-43
2023/12/24 09:51:06;;;;;;;2.97;1.30;;;;;;;;;;4916988;29;20043;-42
2023/12/24 09:53:33;;;;;;;4.68;1.67;;;;;;;;;;4916876;29;20036;-42
2023/12/24 09:56:00;;;;;;;4.55;1.33;;;;;;;;;;4916404;29;20043;-42
2023/12/24 09:58:28;;;;;;;3.15;1.40;;;;;;;;;;4916914;29;20083;-42
2023/12/24 10:00:54;;;;;;;4.32;1.48;;;;;;;;;;4916414;29;20039;-42
2023/12/24 10:03:22;;;;;;;3.50;1.55;;;;;;;;;;4916177;29;20111;-42
2023/12/24 10:06:01;;;;;;;4.43;1.63;;;;;;;;;;4915165;29;20035;-42
2023/12/24 10:08:28;;;;;;;2.85;1.20;;;;;;;;;;4916153;29;20036;-41
2023/12/24 10:10:55;;;;;;;4.20;1.35;;;;;;;;;;4915247;29;20051;-41
2023/12/24 10:13:22;;;;;;;4.20;1.30;;;;;;;;;;4916664;29;20043;-41
2023/12/24 10:16:09;;;;;;;2.47;1.40;;;;;;;;;;4916030;29;20751;-42
2023/12/24 10:18:36;;;;;;;4.03;1.50;;;;;;;;;;4916416;29;20043;-41
2023/12/24 10:21:07;;;;;;;4.93;1.40;;;;;;;;;;4916947;29;20087;-42
2023/12/24 10:23:35;;;;;;;2.00;1.00;;;;;;;;;;4935232;29;20044;-41
2023/12/24 10:26:03;;;;;;;2.25;1.17;;;;;;;;;;4934731;29;20040;-42
2023/12/24 10:28:31;;;;;;;4.93;1.73;;;;;;;;;;4935336;29;20720;-41
2023/12/24 10:31:10;;;;;;;5.72;1.30;;;;;;;;;;4935156;29;20110;-41
2023/12/24 10:33:40;;;;;;;4.85;1.58;;;;;;;;;;4935319;29;20499;-41
2023/12/24 10:36:08;;;;;;;3.17;1.17;;;;;;;;;;4917654;29;20034;-41
2023/12/24 10:38:36;;;;;;;2.88;1.38;;;;;;;;;;4935180;29;20119;-41
2023/12/24 10:41:03;;;;;;;2.63;1.30;;;;;;;;;;4935204;29;20110;-41
2023/12/24 10:43:30;;;;;;;2.70;1.30;;;;;;;;;;4934980;29;20039;-41
2023/12/24 10:45:57;;;;;;;3.45;1.20;;;;;;;;;;4934335;29;20406;-41
2023/12/24 10:48:24;;;;;;;2.40;1.40;;;;;;;;;;4935084;29;20039;-41
2023/12/24 10:50:54;;;;;;;2.38;1.23;;;;;;;;;;4925132;29;20036;-41
2023/12/24 10:53:21;;;;;;;3.53;1.25;;;;;;;;;;4915770;29;20074;-41
2023/12/24 10:55:56;;;;;;;3.15;1.38;;;;;;;;;;4914085;29;20039;-41
2023/12/24 10:58:31;;;;;;;3.50;1.40;;;;;;;;;;4915730;29;20119;-41
2023/12/24 11:01:06;;;;;;;4.72;1.38;;;;;;;;;;4915847;29;20071;-41
2023/12/24 11:03:49;;;;;;;2.08;1.15;;;;;;;;;;4915611;29;20092;-41
2023/12/24 11:06:34;;;;;;;3.65;1.00;;;;;;;;;;4915178;29;20616;-41
2023/12/24 11:09:21;;;;;;;3.92;1.55;;;;;;;;;;4915772;29;20035;-41
2023/12/24 11:11:52;;;;;;;3.03;1.20;;;;;;;;;;4905580;29;20071;-41
2023/12/24 11:14:37;;;;;;;2.70;1.30;;;;;;;;;;4915368;29;20115;-41
2023/12/24 11:17:08;;;;;;;4.65;1.42;;;;;;;;;;4915191;29;20032;-42
2023/12/24 11:19:38;;;;;;;2.63;1.00;;;;;;;;;;4915357;29;20083;-41
2023/12/24 11:22:11;;;;;;;2.25;1.10;;;;;;;;;;4915382;29;20039;-41
2023/12/24 11:24:43;;;;;;;5.50;1.40;;;;;;;;;;4897550;29;20043;-41
2023/12/24 11:27:11;;;;;;;2.67;1.10;;;;;;;;;;4914777;29;20036;-41
2023/12/24 11:29:52;;;;;;;2.92;1.45;;;;;;;;;;4915410;29;20167;-41
2023/12/24 11:32:25;;;;;;;4.38;1.30;;;;;;;;;;4915217;29;20048;-41
2023/12/24 11:34:53;;;;;;;1.73;0.88;;;;;;;;;;4915259;29;20498;-41
2023/12/24 11:37:46;;;;;;;4.25;1.33;;;;;;;;;;4915064;29;20108;-42
2023/12/24 11:40:18;;;;;;;2.45;1.15;;;;;;;;;;4913277;29;20048;-41
2023/12/24 11:42:52;;;;;;;2.63;1.10;;;;;;;;;;4914177;29;20435;-41
2023/12/24 11:45:32;;;;;;;2.83;1.33;;;;;;;;;;4897587;29;20104;-41
2023/12/24 11:48:01;;;;;;;2.13;0.90;;;;;;;;;;4897739;29;20035;-41
2023/12/24 11:50:29;;;;;;;4.32;1.40;;;;;;;;;;4914998;29;20550;-41
2023/12/24 11:52:57;;;;;;;2.75;1.30;;;;;;;;;;4898193;29;20036;-41
2023/12/24 11:55:24;;;;;;;2.25;1.23;;;;;;;;;;4914897;29;20036;-41
2023/12/24 11:57:51;;;;;;;3.83;1.20;;;;;;;;;;4914880;29;20024;-41
2023/12/24 12:00:27;;;;;;;3.55;1.45;;;;;;;;;;4915186;29;20111;-41
2023/12/24 12:02:59;;;;;;;2.58;1.10;;;;;;;;;;4915044;29;20042;-41
2023/12/24 12:05:26;;;;;;;4.97;1.48;;;;;;;;;;4897435;29;20028;-41
2023/12/24 12:07:54;;;;;;;3.13;1.17;;;;;;;;;;4913884;29;20092;-42
2023/12/24 12:10:21;;;;;;;2.90;1.25;;;;;;;;;;4913341;29;20039;-41
2023/12/24 12:12:48;;;;;;;3.90;1.30;;;;;;;;;;4911565;29;20036;-41
2023/12/24 12:15:15;;;;;;;4.90;1.30;;;;;;;;;;4910819;29;20487;-41
2023/12/24 12:17:43;;;;;;;1.65;1.00;;;;;;;;;;4911251;29;20075;-41
2023/12/24 12:20:10;;;;;;;4.72;1.42;;;;;;;;;;4912149;29;20031;-41
2023/12/24 12:22:37;;;;;;;3.38;1.25;;;;;;;;;;4893803;29;20048;-41
2023/12/24 12:25:04;;;;;;;5.45;1.20;;;;;;;;;;4912021;29;20056;-42
2023/12/24 12:27:31;;;;;;;3.47;1.30;;;;;;;;;;4910684;29;20147;-42
2023/12/24 12:29:58;;;;;;;3.13;1.20;;;;;;;;;;4913902;29;20028;-42
2023/12/24 12:32:25;;;;;;;6.65;1.40;;;;;;;;;;4915502;29;20138;-41
2023/12/24 12:34:52;;;;;;;4.93;1.15;;;;;;;;;;4916341;29;20495;-41
2023/12/24 12:37:19;;;;;;;5.78;1.30;;;;;;;;;;4916699;29;20090;-41
2023/12/24 12:39:46;;;;;;;4.28;1.60;;;;;;;;;;4916721;29;20032;-41
2023/12/24 12:42:13;;;;;;;1.85;1.10;;;;;;;;;;4917169;29;20040;-42
2023/12/24 12:44:40;;;;;;;4.80;1.40;;;;;;;;;;4916197;29;20487;-41
2023/12/24 12:47:07;;;;;;;4.18;1.20;;;;;;;;;;4914943;29;20064;-42
2023/12/24 12:49:34;;;;;;;3.35;1.25;;;;;;;;;;4915529;29;20031;-41
2023/12/24 12:52:01;;;;;;;3.22;1.35;;;;;;;;;;4914887;29;20028;-41
2023/12/24 12:54:28;;;;;;;3.33;1.10;;;;;;;;;;4917450;29;20126;-40
2023/12/24 12:56:57;;;;;;;3.88;1.42;;;;;;;;;;4917777;29;20028;-40
2023/12/24 12:59:28;;;;;;;3.85;1.02;;;;;;;;;;4917631;29;20071;-42
2023/12/24 13:01:57;;;;;;;2.50;1.23;;;;;;;;;;4916767;29;20387;-42
2023/12/24 13:04:34;;;;;;;3.28;1.17;;;;;;;;;;4916585;29;20040;-42
2023/12/24 13:07:03;;;;;;;5.80;1.23;;;;;;;;;;4916901;29;20042;-44
2023/12/24 13:09:32;;;;;;;3.25;1.48;;;;;;;;;;4914531;29;20581;-41
2023/12/24 13:12:08;;;;;;;4.72;1.30;;;;;;;;;;4915723;29;20465;-42
2023/12/24 13:14:36;;;;;;;3.85;1.10;;;;;;;;;;4914235;29;20119;-42
2023/12/24 13:17:09;;;;;;;3.63;1.20;;;;;;;;;;4916465;29;20063;-42
2023/12/24 13:19:38;;;;;;;2.78;1.33;;;;;;;;;;4915405;29;20028;-42
2023/12/24 13:22:06;;;;;;;3.38;1.55;;;;;;;;;;4916295;29;20043;-44
2023/12/24 13:24:36;;;;;;;8.13;1.63;;;;;;;;;;4907270;29;20166;-42
2023/12/24 13:27:04;;;;;;;3.80;1.10;;;;;;;;;;4913210;29;20036;-42
2023/12/24 13:29:31;;;;;;;3.55;1.35;;;;;;;;;;4912213;29;20379;-42
2023/12/24 13:31:58;;;;;;;6.10;1.70;;;;;;;;;;4915809;29;20043;-45
2023/12/24 13:34:25;;;;;;;11.75;1.52;;;;;;;;;;4899335;29;20412;-43
2023/12/24 13:36:52;;;;;;;5.55;1.35;;;;;;;;;;4913756;29;20591;-45
2023/12/24 13:39:19;;;;;;;10.27;1.30;;;;;;;;;;4894455;29;20395;-44
2023/12/24 13:41:46;;;;;;;3.28;1.52;;;;;;;;;;4913418;29;20614;-44
2023/12/24 13:44:14;;;;;;;7.78;1.60;;;;;;;;;;4914350;29;20040;-44
2023/12/24 13:46:41;;;;;;;7.38;1.45;;;;;;;;;;4913599;29;20032;-43
2023/12/24 13:49:08;;;;;;;9.55;1.75;;;;;;;;;;4915867;29;20487;-44
2023/12/24 13:51:36;;;;;;;11.25;1.80;;;;;;;;;;4911795;29;20495;-41
2023/12/24 13:54:03;;;;;;;6.75;1.70;;;;;;;;;;4915040;29;20392;-41
2023/12/24 13:56:30;;;;;;;11.25;1.85;;;;;;;;;;4913093;29;20768;-41
2023/12/24 13:58:57;;;;;;;7.88;1.45;;;;;;;;;;4913457;29;20398;-41
2023/12/24 14:01:24;;;;;;;8.40;1.48;;;;;;;;;;4915612;29;20032;-43
2023/12/24 14:03:51;;;;;;;8.85;1.90;;;;;;;;;;4911382;29;20036;-42
2023/12/24 14:06:18;;;;;;;5.50;1.60;;;;;;;;;;4896365;29;20036;-39
2023/12/24 14:08:45;;;;;;;7.38;1.40;;;;;;;;;;4910001;29;20028;-37
2023/12/24 14:11:12;;;;;;;6.88;1.45;;;;;;;;;;4913310;29;20048;-37
2023/12/24 14:13:39;;;;;;;9.38;1.42;;;;;;;;;;4912169;29;20039;-38
2023/12/24 14:16:06;;;;;;;7.38;1.45;;;;;;;;;;4909813;29;20042;-39
2023/12/24 14:18:33;;;;;;;10.68;1.92;;;;;;;;;;4913453;29;20036;-39
2023/12/24 14:21:00;;;;;;;10.05;1.90;;;;;;;;;;4913692;29;20047;-40
2023/12/24 14:23:27;;;;;;;7.60;1.90;;;;;;;;;;4913870;29;20035;-38
2023/12/24 14:25:54;;;;;;;7.40;2.42;;;;;;;;;;4912220;29;20039;-40
2023/12/24 14:28:23;;;;;;;11.52;2.80;;;;;;;;;;4911627;29;20538;-39
2023/12/24 14:30:50;;;;;;;8.27;2.22;;;;;;;;;;4912594;29;20591;-36
2023/12/24 14:33:18;;;;;;;7.60;2.15;;;;;;;;;;4910910;29;20525;-37
2023/12/24 14:35:45;;;;;;;9.77;2.22;;;;;;;;;;4912498;29;20044;-36
2023/12/24 14:38:11;;;;;;;8.00;2.30;;;;;;;;;;4915434;29;20047;-39
2023/12/24 14:40:38;;;;;;;11.32;2.30;;;;;;;;;;4912566;29;20072;-40
2023/12/24 14:43:05;;;;;;;8.60;2.30;;;;;;;;;;4915736;29;20130;-39